Time;durP1;ratioP1;P1;durP2;ratioP2;P2;SDS_P1;SDS_P2;PMS_P1;PMS_P2;Temp;Humidity;BMP_temperature;BMP_pressure;BME280_temperature;BME280_humidity;BME280_pressure;Samples;Min_cycle;Max_cycle;Signal;HPM_P1;HPM_P2
2022/09/19 00:01:30;;;;;;;2.38;0.55;;;;;15.40;101597.00;;;;5012289;28;20252;-77
2022/09/19 00:04:02;;;;;;;1.92;0.50;;;;;15.40;101592.00;;;;5004144;28;20221;-77
2022/09/19 00:06:31;;;;;;;4.30;0.90;;;;;15.40;101593.00;;;;5007957;28;20193;-77
2022/09/19 00:08:59;;;;;;;1.38;0.50;;;;;15.40;101583.00;;;;5007831;28;20203;-77
2022/09/19 00:11:27;;;;;;;1.77;0.98;;;;;15.40;101585.00;;;;5010289;28;20201;-77
2022/09/19 00:13:57;;;;;;;1.75;0.90;;;;;15.40;101594.00;;;;5013857;28;20209;-77
2022/09/19 00:16:28;;;;;;;1.52;0.30;;;;;15.50;101601.00;;;;5018543;28;20201;-77
2022/09/19 00:18:57;;;;;;;1.83;0.90;;;;;15.50;101594.00;;;;5001813;28;20213;-77
2022/09/19 00:21:29;;;;;;;1.73;0.50;;;;;15.50;101598.00;;;;5005638;28;20261;-77
2022/09/19 00:26:41;;;;;;;3.70;0.60;;;;;15.50;101612.00;;;;5022688;28;20245;-77
2022/09/19 00:29:10;;;;;;;1.25;0.70;;;;;15.50;101606.00;;;;5009464;28;20581;-77
2022/09/19 00:31:38;;;;;;;3.33;0.70;;;;;15.50;101606.00;;;;5012314;28;20200;-77
2022/09/19 00:34:08;;;;;;;2.45;0.73;;;;;15.50;101602.00;;;;5018770;28;20200;-77
2022/09/19 00:36:37;;;;;;;3.50;0.63;;;;;15.50;101609.00;;;;5004275;28;20251;-77
2022/09/19 00:39:06;;;;;;;0.88;0.40;;;;;15.60;101609.00;;;;4996823;28;20204;-77
2022/09/19 00:41:36;;;;;;;1.08;0.47;;;;;15.60;101616.00;;;;5010407;28;20227;-77
2022/09/19 00:44:06;;;;;;;4.82;0.80;;;;;15.60;101615.00;;;;5014303;28;20196;-77
2022/09/19 00:46:35;;;;;;;3.22;0.65;;;;;15.60;101609.00;;;;5027004;28;20200;-77
2022/09/19 00:49:06;;;;;;;2.97;0.80;;;;;15.60;101615.00;;;;5009769;28;20196;-77
2022/09/19 00:51:38;;;;;;;2.30;0.40;;;;;15.70;101617.00;;;;5017987;28;20689;-77
2022/09/19 00:54:09;;;;;;;4.38;0.60;;;;;15.70;101620.00;;;;5008050;28;20216;-77
2022/09/19 00:56:37;;;;;;;2.65;0.80;;;;;15.70;101614.00;;;;5014168;28;20208;-77
2022/09/19 00:59:04;;;;;;;2.55;0.73;;;;;15.70;101609.00;;;;5014205;28;20235;-77
2022/09/19 01:01:32;;;;;;;2.67;0.40;;;;;15.80;101618.00;;;;5012929;28;20224;-77
2022/09/19 01:04:01;;;;;;;1.30;0.60;;;;;15.80;101605.00;;;;5011807;28;20215;-77
2022/09/19 01:06:46;;;;;;;2.28;0.60;;;;;15.70;101600.00;;;;5012048;28;20204;-77
2022/09/19 01:09:27;;;;;;;1.67;0.65;;;;;15.70;101609.00;;;;5010334;28;20200;-77
2022/09/19 01:12:07;;;;;;;1.35;0.60;;;;;15.70;101597.00;;;;5012954;28;20266;-77
2022/09/19 01:14:58;;;;;;;3.33;0.68;;;;;15.70;101605.00;;;;5009488;28;20192;-77
2022/09/19 01:17:31;;;;;;;2.97;0.73;;;;;15.80;101608.00;;;;5016913;28;20216;-77
2022/09/19 01:20:28;;;;;;;1.70;0.43;;;;;15.70;101607.00;;;;5013697;28;20193;-77
2022/09/19 01:23:17;;;;;;;3.10;0.52;;;;;15.70;101617.00;;;;5013717;28;20239;-77
2022/09/19 01:25:52;;;;;;;1.77;0.50;;;;;15.70;101621.00;;;;5013020;28;20295;-77
2022/09/19 01:28:24;;;;;;;1.17;0.40;;;;;15.70;101620.00;;;;5009506;28;20197;-77
2022/09/19 01:34:02;;;;;;;1.17;0.57;;;;;15.70;101629.00;;;;4990215;28;20342;-77
2022/09/19 01:36:33;;;;;;;0.93;0.40;;;;;15.70;101632.00;;;;5000476;28;20594;-77
2022/09/19 01:39:04;;;;;;;1.25;0.30;;;;;15.70;101632.00;;;;5008507;28;20202;-77
2022/09/19 01:41:32;;;;;;;1.75;0.60;;;;;15.70;101636.00;;;;5008997;28;20701;-77
2022/09/19 01:44:05;;;;;;;3.05;0.47;;;;;15.70;101630.00;;;;5003773;28;20670;-77
2022/09/19 01:46:41;;;;;;;2.53;0.65;;;;;15.60;101628.00;;;;5022635;28;21008;-77
2022/09/19 01:49:21;;;;;;;2.20;0.63;;;;;15.60;101629.00;;;;5010110;28;20201;-77
2022/09/19 01:51:56;;;;;;;2.97;0.40;;;;;15.60;101625.00;;;;5013065;28;20570;-77
2022/09/19 01:54:33;;;;;;;3.97;0.85;;;;;15.50;101635.00;;;;5007243;28;20685;-77
2022/09/19 01:57:14;;;;;;;2.63;0.70;;;;;15.50;101637.00;;;;5011177;28;21234;-77
2022/09/19 02:00:10;;;;;;;2.45;0.40;;;;;15.50;101644.00;;;;5010333;28;20239;-77
2022/09/19 02:02:46;;;;;;;2.55;0.50;;;;;15.50;101639.00;;;;5018837;28;20221;-77
2022/09/19 02:05:18;;;;;;;0.85;0.52;;;;;15.50;101645.00;;;;5020633;28;20204;-77
2022/09/19 02:08:00;;;;;;;1.45;0.60;;;;;15.50;101647.00;;;;5010237;28;20612;-77
2022/09/19 02:10:33;;;;;;;1.40;0.43;;;;;15.50;101647.00;;;;5009081;28;20311;-77
2022/09/19 02:13:04;;;;;;;1.92;0.40;;;;;15.50;101642.00;;;;5007994;28;20201;-77
2022/09/19 02:15:36;;;;;;;1.75;0.50;;;;;15.40;101644.00;;;;5012430;28;20201;-77
2022/09/19 02:18:09;;;;;;;2.42;0.57;;;;;15.40;101648.00;;;;5007374;28;20208;-77
2022/09/19 02:20:40;;;;;;;0.98;0.47;;;;;15.40;101644.00;;;;5017965;28;20200;-77
2022/09/19 02:23:13;;;;;;;0.77;0.43;;;;;15.40;101647.00;;;;5009797;28;20244;-77
2022/09/19 02:25:42;;;;;;;2.45;0.35;;;;;15.40;101653.00;;;;5011935;28;20274;-77
2022/09/19 02:28:14;;;;;;;0.80;0.40;;;;;15.40;101655.00;;;;5017953;28;20204;-77
2022/09/19 02:30:44;;;;;;;2.28;0.40;;;;;15.40;101654.00;;;;5018839;28;20216;-77
2022/09/19 02:33:12;;;;;;;1.48;0.45;;;;;15.40;101657.00;;;;5013553;28;20271;-77
2022/09/19 02:35:46;;;;;;;1.92;0.55;;;;;15.30;101656.00;;;;5008568;28;20201;-77
2022/09/19 02:38:23;;;;;;;0.70;0.50;;;;;15.30;101653.00;;;;5008744;28;20213;-77
2022/09/19 02:40:57;;;;;;;1.33;0.30;;;;;15.30;101657.00;;;;5016153;28;20259;-77
2022/09/19 02:43:31;;;;;;;1.35;0.32;;;;;15.20;101660.00;;;;5015292;28;20204;-77
2022/09/19 02:46:05;;;;;;;1.25;0.28;;;;;15.30;101658.00;;;;5010710;28;20201;-77
2022/09/19 02:48:44;;;;;;;2.78;0.50;;;;;15.20;101655.00;;;;5011067;28;20196;-77
2022/09/19 02:51:17;;;;;;;1.65;0.15;;;;;15.20;101656.00;;;;5025391;28;20184;-77
2022/09/19 02:53:47;;;;;;;0.30;0.20;;;;;15.20;101661.00;;;;5009821;28;20219;-77
2022/09/19 02:56:18;;;;;;;1.90;0.60;;;;;15.20;101659.00;;;;5006110;28;20659;-77
2022/09/19 02:58:51;;;;;;;2.08;0.60;;;;;15.20;101660.00;;;;5009391;28;20227;-77
2022/09/19 03:01:23;;;;;;;1.55;0.90;;;;;15.20;101656.00;;;;5011043;28;20232;-77
2022/09/19 03:04:12;;;;;;;1.80;0.43;;;;;15.20;101659.00;;;;5013548;28;20201;-77
2022/09/19 03:06:45;;;;;;;0.60;0.40;;;;;15.20;101663.00;;;;5012383;28;20208;-77
2022/09/19 03:09:16;;;;;;;2.17;0.70;;;;;15.20;101658.00;;;;5008563;28;20204;-77
2022/09/19 03:11:52;;;;;;;2.10;0.40;;;;;15.20;101663.00;;;;5012984;28;20667;-77
2022/09/19 03:14:20;;;;;;;2.90;0.82;;;;;15.20;101652.00;;;;5007242;28;20214;-77
2022/09/19 03:16:56;;;;;;;0.82;0.50;;;;;15.20;101662.00;;;;5008880;28;20189;-77
2022/09/19 03:19:24;;;;;;;3.65;0.88;;;;;15.20;101664.00;;;;5008636;28;20204;-77
2022/09/19 03:21:54;;;;;;;1.10;0.40;;;;;15.20;101665.00;;;;5011162;28;20274;-77
2022/09/19 03:24:22;;;;;;;1.30;0.20;;;;;15.20;101667.00;;;;5014131;28;20196;-77
2022/09/19 03:26:49;;;;;;;0.93;0.50;;;;;15.20;101672.00;;;;5009327;28;20222;-77
2022/09/19 03:29:17;;;;;;;2.55;0.32;;;;;15.10;101659.00;;;;5012244;28;20203;-77
2022/09/19 03:31:46;;;;;;;2.22;0.50;;;;;15.10;101672.00;;;;5006076;28;20219;-77
2022/09/19 03:34:16;;;;;;;3.03;0.60;;;;;15.10;101665.00;;;;5007472;28;20287;-77
2022/09/19 03:36:43;;;;;;;1.98;0.63;;;;;15.10;101665.00;;;;5014951;28;20224;-77
2022/09/19 03:39:11;;;;;;;1.88;0.45;;;;;15.10;101666.00;;;;5008877;28;20251;-77
2022/09/19 03:41:38;;;;;;;1.70;0.40;;;;;15.10;101668.00;;;;5005707;28;20235;-77
2022/09/19 03:44:06;;;;;;;3.17;0.22;;;;;15.10;101661.00;;;;5020600;28;20200;-77
2022/09/19 03:46:35;;;;;;;0.52;0.22;;;;;15.10;101673.00;;;;5006829;28;20207;-77
2022/09/19 03:49:03;;;;;;;0.88;0.30;;;;;15.00;101669.00;;;;5013292;28;20208;-77
2022/09/19 03:51:33;;;;;;;1.33;0.40;;;;;15.00;101669.00;;;;5008254;28;20219;-77
2022/09/19 03:54:01;;;;;;;2.95;0.50;;;;;15.00;101670.00;;;;5011603;28;20652;-78
2022/09/19 03:56:28;;;;;;;1.15;0.47;;;;;15.00;101667.00;;;;5012562;28;20215;-77
2022/09/19 03:58:55;;;;;;;1.20;0.45;;;;;15.00;101673.00;;;;5007085;28;20267;-77
2022/09/19 04:01:23;;;;;;;1.50;0.40;;;;;15.00;101675.00;;;;5009095;28;20194;-77
2022/09/19 04:03:50;;;;;;;0.85;0.50;;;;;15.00;101681.00;;;;5008926;28;20197;-77
2022/09/19 04:06:18;;;;;;;1.25;0.50;;;;;15.00;101674.00;;;;5012190;28;20208;-77
2022/09/19 04:08:47;;;;;;;2.53;0.43;;;;;15.00;101682.00;;;;5008705;28;20204;-77
2022/09/19 04:11:14;;;;;;;1.55;0.43;;;;;15.00;101684.00;;;;5012996;28;20211;-77
2022/09/19 04:13:41;;;;;;;0.77;0.30;;;;;15.00;101684.00;;;;5011717;28;20665;-77
2022/09/19 04:16:10;;;;;;;1.15;0.38;;;;;15.00;101689.00;;;;5009248;28;20205;-77
2022/09/19 04:18:41;;;;;;;2.15;0.52;;;;;15.00;101688.00;;;;5004082;28;21103;-77
2022/09/19 04:21:08;;;;;;;1.83;0.63;;;;;15.00;101689.00;;;;5010690;28;20709;-77
2022/09/19 04:23:36;;;;;;;3.05;0.43;;;;;15.00;101691.00;;;;5004076;28;20220;-77
2022/09/19 04:26:04;;;;;;;0.82;0.32;;;;;15.00;101689.00;;;;5011282;28;20212;-77
2022/09/19 04:28:32;;;;;;;1.63;0.40;;;;;15.00;101688.00;;;;5008650;28;20207;-77
2022/09/19 04:30:59;;;;;;;1.73;0.40;;;;;15.00;101687.00;;;;5014639;28;20196;-78
2022/09/19 04:33:27;;;;;;;2.30;0.60;;;;;15.00;101689.00;;;;5011771;28;20208;-77
2022/09/19 04:36:00;;;;;;;2.35;0.60;;;;;15.00;101694.00;;;;5012106;28;20201;-77
2022/09/19 04:38:30;;;;;;;1.85;0.47;;;;;14.90;101695.00;;;;5011952;28;20211;-77
2022/09/19 04:40:57;;;;;;;1.73;0.50;;;;;14.90;101692.00;;;;5011997;28;20231;-77
2022/09/19 04:43:28;;;;;;;0.95;0.73;;;;;14.90;101695.00;;;;5016779;28;20228;-77
2022/09/19 04:45:55;;;;;;;1.25;0.47;;;;;14.90;101698.00;;;;5012530;28;20228;-77
2022/09/19 04:48:24;;;;;;;1.35;0.60;;;;;14.90;101704.00;;;;5012450;28;20212;-77
2022/09/19 04:50:53;;;;;;;0.73;0.47;;;;;14.90;101708.00;;;;5014656;28;20200;-77
2022/09/19 04:53:23;;;;;;;1.15;0.47;;;;;14.90;101713.00;;;;5006961;28;20197;-77
2022/09/19 04:55:51;;;;;;;0.82;0.43;;;;;14.90;101707.00;;;;5012134;28;20204;-77
2022/09/19 04:58:19;;;;;;;1.73;0.40;;;;;14.90;101715.00;;;;5010864;28;20237;-77
2022/09/19 05:00:53;;;;;;;2.30;0.60;;;;;14.80;101715.00;;;;5015734;28;20260;-77
2022/09/19 05:03:21;;;;;;;0.55;0.40;;;;;14.80;101725.00;;;;5012475;28;20236;-77
2022/09/19 05:05:52;;;;;;;1.40;0.60;;;;;14.80;101717.00;;;;5016645;28;20209;-77
2022/09/19 05:08:25;;;;;;;3.53;0.88;;;;;14.80;101714.00;;;;5008109;28;20211;-77
2022/09/19 05:10:54;;;;;;;2.55;0.60;;;;;14.80;101717.00;;;;5025572;28;20204;-77
2022/09/19 05:13:22;;;;;;;3.20;0.50;;;;;14.80;101720.00;;;;5011752;28;20193;-78
2022/09/19 05:15:52;;;;;;;1.70;0.55;;;;;14.80;101725.00;;;;5018158;28;20294;-78
2022/09/19 05:18:21;;;;;;;1.10;0.40;;;;;14.70;101734.00;;;;5010751;28;20223;-77
2022/09/19 05:20:49;;;;;;;1.38;0.63;;;;;14.70;101728.00;;;;5022837;28;20563;-78
2022/09/19 05:23:17;;;;;;;3.08;0.70;;;;;14.70;101730.00;;;;5012179;28;20237;-78
2022/09/19 05:25:45;;;;;;;2.22;0.50;;;;;14.70;101724.00;;;;5014197;28;20239;-78
2022/09/19 05:28:12;;;;;;;1.85;0.47;;;;;14.70;101729.00;;;;5008128;28;20741;-77
2022/09/19 05:30:46;;;;;;;1.98;0.60;;;;;14.70;101733.00;;;;5007825;28;20211;-78
2022/09/19 05:33:15;;;;;;;3.65;0.77;;;;;14.70;101734.00;;;;5005873;28;20799;-78
2022/09/19 05:35:42;;;;;;;1.40;0.47;;;;;14.70;101736.00;;;;5004512;28;20205;-78
2022/09/19 05:38:09;;;;;;;0.77;0.40;;;;;14.70;101738.00;;;;5010015;28;20311;-78
2022/09/19 05:40:37;;;;;;;2.45;0.75;;;;;14.70;101746.00;;;;5025544;28;20203;-79
2022/09/19 05:43:05;;;;;;;2.08;0.75;;;;;14.70;101746.00;;;;5011693;28;20224;-77
2022/09/19 05:45:32;;;;;;;4.05;0.90;;;;;14.70;101744.00;;;;5011563;28;20201;-77
2022/09/19 05:48:05;;;;;;;3.00;1.10;;;;;14.70;101742.00;;;;5007413;28;20213;-77
2022/09/19 05:50:34;;;;;;;3.20;0.95;;;;;14.70;101741.00;;;;5009297;28;20197;-80
2022/09/19 05:55:47;;;;;;;1.27;0.70;;;;;14.80;101746.00;;;;5007838;28;20347;-79
2022/09/19 05:58:17;;;;;;;2.92;0.90;;;;;14.80;101746.00;;;;5009411;28;20284;-80
2022/09/19 06:00:44;;;;;;;3.15;0.85;;;;;14.80;101746.00;;;;5005726;28;20319;-78
2022/09/19 06:03:16;;;;;;;1.15;0.57;;;;;14.80;101751.00;;;;5005371;28;20310;-78
2022/09/19 06:05:48;;;;;;;0.85;0.50;;;;;14.80;101755.00;;;;5003948;28;20225;-78
2022/09/19 06:08:17;;;;;;;3.97;0.77;;;;;14.90;101766.00;;;;5013885;28;20208;-77
2022/09/19 06:10:45;;;;;;;2.95;0.80;;;;;14.90;101761.00;;;;5011076;28;20213;-77
2022/09/19 06:13:14;;;;;;;1.42;0.55;;;;;14.90;101760.00;;;;5010227;28;20631;-78
2022/09/19 06:15:41;;;;;;;3.90;0.90;;;;;15.00;101763.00;;;;5004340;28;20214;-78
2022/09/19 06:18:09;;;;;;;2.30;0.70;;;;;15.00;101761.00;;;;4990965;28;20610;-78
2022/09/19 06:20:37;;;;;;;1.23;0.70;;;;;15.10;101767.00;;;;5030123;28;20196;-77
2022/09/19 06:23:06;;;;;;;1.45;0.65;;;;;15.10;101773.00;;;;5024909;28;20216;-77
2022/09/19 06:25:35;;;;;;;2.17;0.70;;;;;15.20;101776.00;;;;5010905;28;20585;-76
2022/09/19 06:28:05;;;;;;;1.30;0.60;;;;;15.20;101780.00;;;;5009560;28;20205;-77
2022/09/19 06:30:33;;;;;;;1.65;0.60;;;;;15.30;101788.00;;;;5027884;28;20255;-78
2022/09/19 06:33:00;;;;;;;5.78;0.70;;;;;15.30;101793.00;;;;5004017;28;20780;-78
2022/09/19 06:35:28;;;;;;;2.33;0.98;;;;;15.40;101789.00;;;;5009677;28;20213;-78
2022/09/19 06:38:00;;;;;;;4.60;0.80;;;;;15.50;101789.00;;;;5027666;28;20201;-78
2022/09/19 06:40:30;;;;;;;2.55;1.20;;;;;15.50;101792.00;;;;5029129;28;20200;-78
2022/09/19 06:43:01;;;;;;;4.43;1.17;;;;;15.60;101789.00;;;;5021746;28;20224;-78
2022/09/19 06:45:28;;;;;;;2.88;0.65;;;;;15.70;101794.00;;;;5022429;28;20659;-78
2022/09/19 06:48:00;;;;;;;3.13;0.77;;;;;15.70;101793.00;;;;5009125;28;20198;-78
2022/09/19 06:50:28;;;;;;;1.95;0.60;;;;;15.80;101790.00;;;;4997815;28;20205;-78
2022/09/19 06:52:56;;;;;;;4.15;0.95;;;;;15.90;101797.00;;;;4996219;28;20216;-78
2022/09/19 06:55:25;;;;;;;2.08;1.00;;;;;16.10;101796.00;;;;5020136;28;20200;-78
2022/09/19 06:57:58;;;;;;;2.15;1.02;;;;;16.10;101803.00;;;;5009738;28;20773;-78
2022/09/19 07:00:26;;;;;;;4.07;0.60;;;;;16.30;101810.00;;;;5009745;28;20217;-78
2022/09/19 07:02:59;;;;;;;3.38;0.50;;;;;16.50;101798.00;;;;5009613;28;20231;-77
2022/09/19 07:05:27;;;;;;;3.83;0.70;;;;;16.60;101808.00;;;;5009346;28;20272;-78
2022/09/19 07:07:54;;;;;;;3.30;0.45;;;;;16.70;101806.00;;;;5008532;28;20924;-78
2022/09/19 07:10:22;;;;;;;2.78;0.60;;;;;16.90;101806.00;;;;5015964;28;20204;-78
2022/09/19 07:12:52;;;;;;;3.42;0.73;;;;;17.00;101810.00;;;;5015452;28;20208;-78
2022/09/19 07:15:21;;;;;;;6.75;0.98;;;;;17.10;101805.00;;;;5009622;28;20208;-78
2022/09/19 07:17:48;;;;;;;5.28;1.08;;;;;17.30;101809.00;;;;5009804;28;20201;-79
2022/09/19 07:20:16;;;;;;;4.72;1.15;;;;;17.40;101818.00;;;;5010043;28;20582;-79
2022/09/19 07:22:43;;;;;;;2.83;0.77;;;;;17.50;101808.00;;;;5008945;28;20193;-79
2022/09/19 07:25:11;;;;;;;2.50;0.50;;;;;17.70;101810.00;;;;5007919;28;20212;-79
2022/09/19 07:27:40;;;;;;;3.95;0.65;;;;;17.80;101807.00;;;;5009580;28;20201;-79
2022/09/19 07:30:08;;;;;;;2.00;0.40;;;;;17.90;101808.00;;;;5008777;28;20197;-79
2022/09/19 07:32:37;;;;;;;3.00;0.93;;;;;18.00;101811.00;;;;5009622;28;20184;-80
2022/09/19 07:35:06;;;;;;;1.80;0.30;;;;;18.20;101816.00;;;;5012826;28;20196;-80
2022/09/19 07:37:33;;;;;;;3.05;0.77;;;;;18.30;101812.00;;;;5011067;28;20197;-79
2022/09/19 07:40:01;;;;;;;5.25;0.80;;;;;18.40;101814.00;;;;5021688;28;20204;-79
2022/09/19 07:42:28;;;;;;;4.28;0.88;;;;;18.60;101823.00;;;;5000886;28;20275;-79
2022/09/19 07:44:56;;;;;;;3.90;0.57;;;;;18.70;101821.00;;;;5017192;28;20725;-80
2022/09/19 07:47:29;;;;;;;3.75;0.70;;;;;18.80;101831.00;;;;5008728;28;20666;-80
2022/09/19 07:49:57;;;;;;;4.28;0.55;;;;;18.90;101839.00;;;;5018605;28;20207;-77
2022/09/19 07:52:25;;;;;;;4.43;0.85;;;;;19.00;101838.00;;;;5029082;28;20208;-77
2022/09/19 07:54:52;;;;;;;4.07;0.50;;;;;19.20;101838.00;;;;5028446;28;20211;-77
2022/09/19 07:57:19;;;;;;;6.38;0.75;;;;;19.30;101845.00;;;;5017196;28;20308;-79
2022/09/19 07:59:47;;;;;;;4.88;0.73;;;;;19.40;101843.00;;;;5001998;28;20217;-80
2022/09/19 08:02:14;;;;;;;2.55;0.50;;;;;19.40;101856.00;;;;5008921;28;20197;-80
2022/09/19 08:04:42;;;;;;;3.10;0.60;;;;;19.50;101857.00;;;;5020755;28;20274;-80
2022/09/19 08:07:10;;;;;;;7.82;0.77;;;;;19.50;101863.00;;;;5021747;28;20200;-80
2022/09/19 08:09:37;;;;;;;2.58;0.57;;;;;19.60;101864.00;;;;5008003;28;20196;-79
2022/09/19 08:12:06;;;;;;;4.63;0.75;;;;;19.70;101865.00;;;;5013508;28;20196;-79
2022/09/19 08:14:34;;;;;;;1.92;0.50;;;;;19.70;101862.00;;;;5017828;28;20205;-80
2022/09/19 08:17:01;;;;;;;3.67;0.45;;;;;19.80;101864.00;;;;4993356;28;20185;-80
2022/09/19 08:19:28;;;;;;;2.92;0.50;;;;;19.90;101871.00;;;;5008457;28;20204;-80
2022/09/19 08:21:57;;;;;;;5.30;0.77;;;;;20.00;101877.00;;;;5008312;28;20666;-80
2022/09/19 08:24:25;;;;;;;4.82;0.63;;;;;20.00;101885.00;;;;5017607;28;20224;-79
2022/09/19 08:26:56;;;;;;;2.25;0.65;;;;;20.20;101890.00;;;;5026108;28;20188;-80
2022/09/19 08:29:26;;;;;;;2.63;0.52;;;;;20.20;101884.00;;;;5009396;28;20197;-80
2022/09/19 08:31:53;;;;;;;3.45;0.40;;;;;20.40;101889.00;;;;5007818;28;20207;-79
2022/09/19 08:34:21;;;;;;;4.50;0.65;;;;;20.40;101888.00;;;;5008355;28;20615;-80
2022/09/19 08:36:48;;;;;;;1.40;0.47;;;;;20.50;101891.00;;;;5007885;28;20200;-79
2022/09/19 08:39:15;;;;;;;3.30;0.75;;;;;20.60;101885.00;;;;5027608;28;20196;-80
2022/09/19 08:42:11;;;;;;;3.72;0.68;;;;;20.70;101882.00;;;;5018387;28;20197;-79
2022/09/19 08:44:50;;;;;;;3.95;0.43;;;;;20.80;101884.00;;;;5003579;28;20228;-79
2022/09/19 08:47:20;;;;;;;4.72;0.90;;;;;20.90;101887.00;;;;5008194;28;20236;-80
2022/09/19 08:49:52;;;;;;;4.05;0.60;;;;;21.00;101890.00;;;;5008761;28;20208;-80
2022/09/19 08:52:31;;;;;;;5.30;1.02;;;;;21.10;101894.00;;;;5008345;28;20216;-80
2022/09/19 08:55:01;;;;;;;3.78;0.75;;;;;21.20;101912.00;;;;5008488;28;20201;-79
2022/09/19 08:57:32;;;;;;;4.25;1.00;;;;;21.10;101916.00;;;;5007847;28;20582;-79
2022/09/19 09:00:05;;;;;;;4.32;0.60;;;;;21.10;101920.00;;;;5007869;28;20217;-80
2022/09/19 09:02:42;;;;;;;1.70;0.65;;;;;21.00;101917.00;;;;5008387;28;20729;-79
2022/09/19 09:05:14;;;;;;;1.73;0.45;;;;;21.00;101910.00;;;;5007426;28;20225;-78
2022/09/19 09:07:54;;;;;;;2.15;0.32;;;;;20.90;101909.00;;;;4999191;28;20200;-79
2022/09/19 09:10:31;;;;;;;2.67;0.60;;;;;20.90;101914.00;;;;5025946;28;20196;-79
2022/09/19 09:13:15;;;;;;;0.60;0.38;;;;;20.80;101909.00;;;;5031619;28;20200;-78
2022/09/19 09:15:58;;;;;;;3.03;0.77;;;;;20.70;101908.00;;;;4992561;28;20627;-78
2022/09/19 09:19:03;;;;;;;2.05;0.52;;;;;20.60;101909.00;;;;5007198;28;20304;-78
2022/09/19 09:21:40;;;;;;;2.17;0.50;;;;;20.70;101906.00;;;;5021136;28;20269;-80
2022/09/19 09:24:16;;;;;;;2.33;0.32;;;;;20.70;101903.00;;;;5012651;28;20224;-78
2022/09/19 09:26:46;;;;;;;4.97;0.88;;;;;20.80;101909.00;;;;5012103;28;20203;-78
2022/09/19 09:29:23;;;;;;;1.67;0.52;;;;;20.90;101890.00;;;;5019391;28;20203;-78
2022/09/19 09:31:56;;;;;;;3.67;0.98;;;;;21.00;101905.00;;;;5011753;28;20211;-78
2022/09/19 09:34:26;;;;;;;3.80;0.40;;;;;21.20;101911.00;;;;5011125;28;20205;-80
2022/09/19 09:36:59;;;;;;;5.45;0.68;;;;;21.30;101913.00;;;;5011533;28;20610;-80
2022/09/19 09:39:32;;;;;;;1.95;0.35;;;;;21.40;101913.00;;;;4995523;28;20205;-80
2022/09/19 09:42:02;;;;;;;3.58;0.60;;;;;21.60;101915.00;;;;5011023;28;20201;-80
2022/09/19 09:44:43;;;;;;;2.03;0.28;;;;;21.60;101922.00;;;;5010736;28;20228;-80
2022/09/19 09:47:21;;;;;;;2.13;0.50;;;;;21.70;101916.00;;;;5009602;28;20197;-80
2022/09/19 09:49:51;;;;;;;5.65;0.50;;;;;21.80;101927.00;;;;5014575;28;20204;-80
2022/09/19 09:52:33;;;;;;;1.85;0.30;;;;;21.80;101919.00;;;;5013079;28;20197;-80
2022/09/19 09:58:10;;;;;;;4.13;0.47;;;;;22.00;101924.00;;;;5004166;28;20274;-80
2022/09/19 10:03:38;;;;;;;2.67;0.80;;;;;22.10;101934.00;;;;5010766;28;20229;-80
2022/09/19 10:06:11;;;;;;;2.55;0.47;;;;;22.10;101936.00;;;;5010910;28;20232;-80
2022/09/19 10:08:45;;;;;;;2.40;0.45;;;;;22.10;101918.00;;;;5011042;28;20197;-81
2022/09/19 10:11:17;;;;;;;1.95;0.60;;;;;22.10;101915.00;;;;5029901;28;20196;-81
2022/09/19 10:13:53;;;;;;;0.98;0.30;;;;;22.10;101919.00;;;;5025188;28;20258;-80
2022/09/19 10:16:22;;;;;;;3.08;0.60;;;;;22.10;101921.00;;;;5019441;28;20629;-80
2022/09/19 10:18:56;;;;;;;1.65;0.60;;;;;22.10;101924.00;;;;5010433;28;20201;-80
2022/09/19 10:21:23;;;;;;;2.28;0.30;;;;;22.20;101918.00;;;;5010240;28;20682;-80
2022/09/19 10:23:50;;;;;;;3.20;0.30;;;;;22.20;101920.00;;;;5014592;28;20223;-81
2022/09/19 10:26:26;;;;;;;1.27;0.70;;;;;22.20;101923.00;;;;5029720;28;20200;-80
2022/09/19 10:28:59;;;;;;;4.05;0.77;;;;;22.30;101921.00;;;;5014489;28;20591;-80
2022/09/19 10:31:34;;;;;;;3.90;1.23;;;;;22.40;101933.00;;;;4998092;28;20205;-80
2022/09/19 10:34:04;;;;;;;5.18;0.68;;;;;22.60;101932.00;;;;4997678;28;20204;-80
2022/09/19 10:36:33;;;;;;;1.83;0.40;;;;;22.70;101935.00;;;;5009988;28;20208;-80
2022/09/19 10:39:07;;;;;;;1.00;0.50;;;;;22.80;101963.00;;;;5018631;28;20682;-80
2022/09/19 10:41:37;;;;;;;3.83;0.38;;;;;22.80;101959.00;;;;4990566;28;20683;-81
2022/09/19 10:44:09;;;;;;;1.45;0.65;;;;;22.70;101961.00;;;;5020901;28;20220;-80
2022/09/19 10:46:46;;;;;;;2.40;0.75;;;;;22.60;101964.00;;;;5030316;28;20247;-81
2022/09/19 10:49:20;;;;;;;0.68;0.30;;;;;22.50;101961.00;;;;5009166;28;20203;-80
2022/09/19 10:51:50;;;;;;;1.20;0.28;;;;;22.40;101952.00;;;;5009733;28;20240;-80
2022/09/19 10:54:31;;;;;;;1.45;0.40;;;;;22.20;101944.00;;;;5017599;28;20287;-80
2022/09/19 10:57:00;;;;;;;1.85;0.40;;;;;22.20;101939.00;;;;5029217;28;20266;-80
2022/09/19 10:59:35;;;;;;;1.90;0.38;;;;;22.00;101945.00;;;;5010480;28;20271;-80
2022/09/19 11:02:22;;;;;;;2.08;0.45;;;;;21.80;101939.00;;;;5010016;28;20203;-80
2022/09/19 11:05:00;;;;;;;1.52;0.40;;;;;21.80;101950.00;;;;5002681;28;20235;-80
2022/09/19 11:07:30;;;;;;;0.45;0.10;;;;;21.80;101950.00;;;;4994897;28;20204;-80
2022/09/19 11:10:01;;;;;;;2.47;0.40;;;;;21.70;101947.00;;;;5018075;28;20589;-80
2022/09/19 11:12:30;;;;;;;3.28;0.40;;;;;21.60;101951.00;;;;5010208;28;20204;-80
2022/09/19 11:14:59;;;;;;;1.48;0.60;;;;;21.60;101957.00;;;;5023848;28;20230;-80
2022/09/19 11:17:55;;;;;;;3.03;0.45;;;;;21.50;101950.00;;;;5027934;28;20211;-80
2022/09/19 11:20:32;;;;;;;2.35;0.50;;;;;21.50;101949.00;;;;5026547;28;20728;-81
2022/09/19 11:23:42;;;;;;;1.85;0.30;;;;;21.40;101940.00;;;;5011484;28;20299;-81
2022/09/19 11:26:22;;;;;;;4.28;1.13;;;;;21.40;101942.00;;;;4993977;28;20201;-80
2022/09/19 11:29:02;;;;;;;1.83;0.80;;;;;21.40;101944.00;;;;5008830;28;20201;-80
2022/09/19 11:31:41;;;;;;;2.17;0.50;;;;;21.40;101947.00;;;;5009622;28;20304;-80
2022/09/19 11:34:17;;;;;;;6.40;0.60;;;;;21.40;101939.00;;;;5023275;28;20250;-80
2022/09/19 11:36:57;;;;;;;1.42;0.22;;;;;21.40;101944.00;;;;5015283;28;20219;-81
2022/09/19 11:39:33;;;;;;;1.13;0.25;;;;;21.40;101942.00;;;;5006451;28;20200;-80
2022/09/19 11:42:18;;;;;;;3.50;0.35;;;;;21.50;101929.00;;;;5006063;28;20219;-80
2022/09/19 11:44:59;;;;;;;2.55;0.40;;;;;21.50;101937.00;;;;5010053;28;20255;-80
2022/09/19 11:48:00;;;;;;;2.40;0.65;;;;;21.60;101939.00;;;;5008481;28;20193;-83
2022/09/19 11:50:51;;;;;;;1.67;0.40;;;;;21.70;101934.00;;;;5008273;28;20197;-81
2022/09/19 11:53:40;;;;;;;1.42;0.30;;;;;21.80;101941.00;;;;4992950;28;20197;-79
2022/09/19 11:56:23;;;;;;;1.15;0.30;;;;;21.90;101969.00;;;;5007679;28;20566;-80
2022/09/19 11:59:01;;;;;;;1.77;0.47;;;;;21.90;101966.00;;;;5009309;28;20283;-78
2022/09/19 12:01:40;;;;;;;1.92;0.32;;;;;21.80;101962.00;;;;5008009;28;20200;-78
2022/09/19 12:04:24;;;;;;;1.05;0.10;;;;;21.70;101957.00;;;;5015589;28;20282;-78
2022/09/19 12:07:13;;;;;;;0.60;0.20;;;;;21.60;101949.00;;;;5011623;28;20653;-78
2022/09/19 12:09:45;;;;;;;1.77;0.40;;;;;21.50;101937.00;;;;5007290;28;20193;-77
2022/09/19 12:12:15;;;;;;;2.35;0.20;;;;;21.40;101940.00;;;;4996041;28;20695;-78
2022/09/19 12:14:49;;;;;;;1.88;0.30;;;;;21.40;101941.00;;;;5005673;28;20281;-78
2022/09/19 12:17:22;;;;;;;1.35;0.20;;;;;21.30;101942.00;;;;5007684;28;20207;-78
2022/09/19 12:19:57;;;;;;;3.45;0.40;;;;;21.20;101949.00;;;;5008640;28;20201;-79
2022/09/19 12:22:30;;;;;;;1.73;0.35;;;;;21.20;101948.00;;;;5008258;28;20619;-78
2022/09/19 12:25:03;;;;;;;2.80;0.60;;;;;21.20;101944.00;;;;5021336;28;20224;-78
2022/09/19 12:27:37;;;;;;;2.70;0.47;;;;;21.20;101941.00;;;;5007257;28;20251;-78
2022/09/19 12:30:13;;;;;;;1.42;0.30;;;;;21.20;101946.00;;;;5008151;28;20207;-78
2022/09/19 12:32:47;;;;;;;4.78;1.08;;;;;21.20;101941.00;;;;5007875;28;20232;-76
2022/09/19 12:35:21;;;;;;;4.55;0.70;;;;;21.20;101940.00;;;;5008414;28;20204;-79
2022/09/19 12:38:02;;;;;;;6.50;0.70;;;;;21.30;101940.00;;;;5002881;28;20197;-79
2022/09/19 12:40:39;;;;;;;1.90;0.20;;;;;21.30;101938.00;;;;5009499;28;21045;-78
2022/09/19 12:43:18;;;;;;;3.28;0.60;;;;;21.30;101934.00;;;;5011855;28;20228;-79
2022/09/19 12:45:55;;;;;;;3.22;0.40;;;;;21.30;101938.00;;;;5012547;28;20236;-79
2022/09/19 12:48:31;;;;;;;2.53;0.52;;;;;21.40;101935.00;;;;5007001;28;20197;-79